Time;durP1;ratioP1;P1;durP2;ratioP2;P2;SDS_P1;SDS_P2;PMS_P1;PMS_P2;Temp;Humidity;BMP_temperature;BMP_pressure;BME280_temperature;BME280_humidity;BME280_pressure;Samples;Min_cycle;Max_cycle;Signal;HPM_P1;HPM_P2
2022/04/03 00:01:44;;;;;;;8.05;2.60;;;-3.10;99.90;;;;;;5093587;28;20048;-86
2022/04/03 00:04:10;;;;;;;4.18;2.13;;;-3.10;99.90;;;;;;5059324;28;20048;-86
2022/04/03 00:06:35;;;;;;;5.35;2.38;;;-3.20;99.90;;;;;;5072469;28;20048;-86
2022/04/03 00:09:02;;;;;;;4.65;2.17;;;-3.20;99.90;;;;;;5075317;28;20051;-86
2022/04/03 00:11:28;;;;;;;7.10;2.75;;;-3.20;99.90;;;;;;5090817;28;20050;-86
2022/04/03 00:13:55;;;;;;;6.30;2.30;;;-3.20;99.90;;;;;;5075433;28;20058;-86
2022/04/03 00:16:21;;;;;;;3.60;2.10;;;-3.20;99.90;;;;;;5075328;28;20054;-85
2022/04/03 00:18:47;;;;;;;5.90;2.15;;;-3.10;99.90;;;;;;5058683;28;20052;-86
2022/04/03 00:21:13;;;;;;;4.32;2.00;;;-3.10;99.90;;;;;;5058696;28;20051;-86
2022/04/03 00:23:39;;;;;;;5.30;2.53;;;-3.10;99.90;;;;;;5074997;28;20055;-86
2022/04/03 00:26:05;;;;;;;6.85;2.58;;;-3.10;99.90;;;;;;5093212;28;20055;-86
2022/04/03 00:28:32;;;;;;;4.95;1.85;;;-3.10;99.90;;;;;;5058499;28;20052;-86
2022/04/03 00:30:58;;;;;;;6.47;2.33;;;-3.20;99.90;;;;;;5070801;28;20099;-86
2022/04/03 00:33:24;;;;;;;7.75;2.13;;;-3.20;99.90;;;;;;5072692;28;20091;-86
2022/04/03 00:35:50;;;;;;;5.22;2.20;;;-3.20;99.90;;;;;;5071497;28;20048;-86
2022/04/03 00:38:17;;;;;;;3.40;2.30;;;-3.20;99.90;;;;;;5055243;28;20052;-86
2022/04/03 00:40:47;;;;;;;4.95;2.30;;;-3.20;99.90;;;;;;5071012;28;20051;-86
2022/04/03 00:43:12;;;;;;;8.80;2.40;;;-3.20;99.90;;;;;;5071388;28;20049;-86
2022/04/03 00:45:43;;;;;;;5.70;2.58;;;-3.10;99.90;;;;;;5054611;28;20072;-86
2022/04/03 00:48:09;;;;;;;6.17;2.90;;;-3.00;99.90;;;;;;5072936;28;20414;-86
2022/04/03 00:50:35;;;;;;;7.38;2.08;;;-3.00;99.90;;;;;;5053850;28;20307;-87
2022/04/03 00:53:01;;;;;;;6.03;2.72;;;-3.00;99.90;;;;;;5072686;28;20080;-87
2022/04/03 00:55:27;;;;;;;4.25;2.17;;;-3.00;99.90;;;;;;5072253;28;20083;-87
2022/04/03 00:57:53;;;;;;;3.63;2.35;;;-3.00;99.90;;;;;;5054892;28;20475;-87
2022/04/03 01:00:18;;;;;;;3.65;2.30;;;-3.10;99.90;;;;;;5071204;28;20041;-86
2022/04/03 01:02:44;;;;;;;3.88;2.55;;;-3.10;99.90;;;;;;5051333;28;20078;-87
2022/04/03 01:05:10;;;;;;;5.97;2.45;;;-3.10;99.90;;;;;;5051525;28;20048;-85
2022/04/03 01:07:36;;;;;;;6.63;2.50;;;-3.10;99.90;;;;;;5054131;28;20052;-86
2022/04/03 01:10:03;;;;;;;4.90;2.40;;;-3.20;99.90;;;;;;5054359;28;20071;-86
2022/04/03 01:12:28;;;;;;;5.22;2.80;;;-3.20;99.90;;;;;;5071870;28;20052;-87
2022/04/03 01:14:54;;;;;;;3.17;2.08;;;-3.20;99.90;;;;;;5072075;28;20047;-86
2022/04/03 01:17:19;;;;;;;8.93;2.83;;;-3.20;99.90;;;;;;5053541;28;20052;-87
2022/04/03 01:19:45;;;;;;;8.23;2.65;;;-3.20;99.90;;;;;;5071687;28;20394;-86
2022/04/03 01:22:12;;;;;;;6.50;2.85;;;-3.10;99.90;;;;;;5071509;28;20375;-86
2022/04/03 01:24:43;;;;;;;8.40;2.42;;;-3.00;99.90;;;;;;5071109;28;20045;-87
2022/04/03 01:27:08;;;;;;;3.97;2.75;;;-2.90;99.90;;;;;;5071729;28;20060;-87
2022/04/03 01:29:34;;;;;;;5.07;2.70;;;-2.70;99.90;;;;;;5070706;28;20059;-88
2022/04/03 01:31:59;;;;;;;4.70;2.58;;;-2.60;99.90;;;;;;5088952;28;20139;-88
2022/04/03 01:34:25;;;;;;;3.50;2.30;;;-2.50;99.90;;;;;;5074432;28;20556;-85
2022/04/03 01:36:51;;;;;;;4.15;2.42;;;-2.50;99.90;;;;;;5073928;28;20056;-86
2022/04/03 01:39:16;;;;;;;5.75;2.53;;;-2.40;99.90;;;;;;5074785;28;20134;-86
2022/04/03 01:41:43;;;;;;;5.10;2.40;;;-2.30;99.90;;;;;;5091975;28;20101;-85
2022/04/03 01:44:11;;;;;;;5.97;3.10;;;-2.20;99.90;;;;;;5074092;28;20393;-85
2022/04/03 01:46:37;;;;;;;7.38;2.80;;;-2.10;99.90;;;;;;5074340;28;20051;-86
2022/04/03 01:49:04;;;;;;;4.22;2.50;;;-2.00;99.90;;;;;;5073834;28;20076;-86
2022/04/03 01:51:31;;;;;;;5.72;2.92;;;-1.90;99.90;;;;;;5073860;28;20063;-87
2022/04/03 01:53:57;;;;;;;7.13;2.55;;;-1.90;99.90;;;;;;5091995;28;20063;-85
2022/04/03 01:56:22;;;;;;;4.63;2.20;;;-1.90;99.90;;;;;;5057534;28;20490;-85
2022/04/03 01:58:48;;;;;;;5.47;2.30;;;-1.80;99.90;;;;;;5074111;28;20056;-85
2022/04/03 02:01:14;;;;;;;7.38;2.42;;;-1.80;99.90;;;;;;5091578;28;20051;-85
2022/04/03 02:03:39;;;;;;;4.75;2.90;;;-1.70;99.90;;;;;;5057439;28;20093;-87
2022/04/03 02:06:05;;;;;;;4.55;2.53;;;-1.60;99.90;;;;;;5074190;28;20056;-87
2022/04/03 02:08:31;;;;;;;6.60;2.63;;;-1.50;99.90;;;;;;5091289;28;20078;-87
2022/04/03 02:10:58;;;;;;;4.95;2.28;;;-1.40;99.90;;;;;;5092024;28;20533;-87
2022/04/03 02:13:24;;;;;;;5.40;2.53;;;-1.30;99.90;;;;;;5073740;28;20055;-85
2022/04/03 02:15:50;;;;;;;7.55;2.85;;;-1.30;99.90;;;;;;5091842;28;20500;-85
2022/04/03 02:18:17;;;;;;;3.30;2.08;;;-1.30;99.90;;;;;;5073245;28;20056;-85
2022/04/03 02:20:43;;;;;;;5.07;2.55;;;-1.30;99.90;;;;;;5092025;28;20181;-85
2022/04/03 02:23:10;;;;;;;3.83;2.35;;;-1.10;99.90;;;;;;5092024;28;20459;-85
2022/04/03 02:25:37;;;;;;;5.45;2.45;;;-1.30;99.90;;;;;;5073857;28;20052;-85
2022/04/03 02:28:06;;;;;;;5.55;2.63;;;-1.30;99.90;;;;;;5091633;28;20094;-85
2022/04/03 02:30:31;;;;;;;4.55;3.00;;;-1.20;99.90;;;;;;5049593;28;20056;-85
2022/04/03 02:32:57;;;;;;;7.07;2.80;;;-1.20;99.90;;;;;;5051269;28;20056;-85
2022/04/03 02:35:23;;;;;;;6.15;2.60;;;-1.20;99.90;;;;;;5051273;28;20483;-86
2022/04/03 02:37:48;;;;;;;7.55;3.03;;;-1.20;99.90;;;;;;5050037;28;20474;-85
2022/04/03 02:40:16;;;;;;;4.55;2.70;;;-1.20;99.90;;;;;;5049563;28;20085;-86
2022/04/03 02:42:42;;;;;;;5.05;2.25;;;-1.30;99.90;;;;;;5051416;28;20045;-86
2022/04/03 02:45:10;;;;;;;8.15;3.00;;;-1.30;99.90;;;;;;5051337;28;20056;-86
2022/04/03 02:47:36;;;;;;;5.72;2.38;;;-1.30;99.90;;;;;;5049923;28;20553;-85
2022/04/03 02:50:04;;;;;;;3.70;2.10;;;-1.30;99.90;;;;;;5050999;28;20439;-86
2022/04/03 02:52:29;;;;;;;3.08;2.45;;;-1.30;99.90;;;;;;5050735;28;20487;-85
2022/04/03 02:54:56;;;;;;;9.82;3.47;;;-1.40;99.90;;;;;;5054794;28;20098;-85
2022/04/03 02:57:23;;;;;;;6.80;2.97;;;-1.40;99.90;;;;;;5053973;28;20053;-86
2022/04/03 02:59:48;;;;;;;4.32;2.70;;;-1.30;99.90;;;;;;5053297;28;20457;-86
2022/04/03 03:02:14;;;;;;;7.82;2.85;;;-1.30;99.90;;;;;;5054308;28;20041;-85
2022/04/03 03:04:39;;;;;;;6.20;3.17;;;-1.30;99.90;;;;;;5053852;28;20056;-85
2022/04/03 03:07:07;;;;;;;8.13;3.20;;;-1.30;99.90;;;;;;5053336;28;20045;-86
2022/04/03 03:09:33;;;;;;;6.85;3.22;;;-1.30;99.90;;;;;;5053578;28;20051;-86
2022/04/03 03:12:00;;;;;;;6.22;2.72;;;-1.40;99.90;;;;;;5036762;28;20071;-85
2022/04/03 03:14:27;;;;;;;4.85;2.75;;;-1.40;99.90;;;;;;5053258;28;20124;-85
2022/04/03 03:16:53;;;;;;;6.75;3.17;;;-1.40;99.90;;;;;;5054065;28;20494;-85
2022/04/03 03:19:18;;;;;;;4.03;2.97;;;-1.50;99.90;;;;;;5054204;28;20501;-86
2022/04/03 03:21:44;;;;;;;5.32;3.10;;;-1.60;99.90;;;;;;5050182;28;20136;-86
2022/04/03 03:24:10;;;;;;;5.30;3.10;;;-1.60;99.90;;;;;;5041550;28;20512;-86
2022/04/03 03:26:36;;;;;;;4.63;3.03;;;-1.70;99.90;;;;;;5053413;28;20049;-85
2022/04/03 03:29:03;;;;;;;5.68;3.25;;;-1.90;99.90;;;;;;5053883;28;20049;-86
2022/04/03 03:31:28;;;;;;;7.53;3.17;;;-1.90;99.90;;;;;;5056067;28;20246;-86
2022/04/03 03:33:55;;;;;;;7.63;3.15;;;-2.00;99.90;;;;;;5074110;28;20139;-86
2022/04/03 03:36:20;;;;;;;6.80;3.28;;;-2.00;99.90;;;;;;5056605;28;20045;-85
2022/04/03 03:38:46;;;;;;;5.80;3.03;;;-1.90;99.90;;;;;;5072664;28;20044;-86
2022/04/03 03:41:14;;;;;;;6.75;2.65;;;-1.90;99.90;;;;;;5073144;28;20402;-85
2022/04/03 03:43:40;;;;;;;6.43;3.08;;;-1.90;99.90;;;;;;5073045;28;20448;-85
2022/04/03 03:46:05;;;;;;;8.95;3.08;;;-1.80;99.90;;;;;;5071155;28;20049;-85
2022/04/03 03:48:31;;;;;;;7.10;3.30;;;-1.70;99.90;;;;;;5071918;28;20382;-85
2022/04/03 03:50:57;;;;;;;8.35;3.17;;;-1.60;99.90;;;;;;5068942;28;20053;-86
2022/04/03 03:53:22;;;;;;;4.90;3.17;;;-1.50;99.90;;;;;;5063582;28;20091;-86
2022/04/03 03:55:49;;;;;;;4.90;2.80;;;-1.30;99.90;;;;;;5074052;28;20056;-85
2022/04/03 03:58:15;;;;;;;5.15;3.50;;;-1.20;99.90;;;;;;5073890;28;20106;-86
2022/04/03 04:00:41;;;;;;;4.88;2.85;;;-1.10;99.90;;;;;;5073662;28;20040;-86
2022/04/03 04:03:07;;;;;;;5.43;2.92;;;-1.00;99.90;;;;;;5072260;28;20052;-85
2022/04/03 04:05:33;;;;;;;4.82;3.40;;;-1.00;99.90;;;;;;5055765;28;20049;-85
2022/04/03 04:07:58;;;;;;;9.30;3.40;;;-0.90;99.90;;;;;;5072239;28;20537;-85
2022/04/03 04:10:24;;;;;;;6.28;3.25;;;-0.80;99.90;;;;;;5072145;28;20063;-86
2022/04/03 04:12:49;;;;;;;5.80;3.22;;;-0.70;99.90;;;;;;5055341;28;20122;-85
2022/04/03 04:15:16;;;;;;;5.45;3.10;;;-0.60;99.90;;;;;;5071474;28;20136;-85
2022/04/03 04:17:46;;;;;;;5.35;3.05;;;-0.50;99.90;;;;;;5072479;28;20041;-86
2022/04/03 04:20:15;;;;;;;5.40;2.50;;;-0.50;99.90;;;;;;5071764;28;20048;-86
2022/04/03 04:22:41;;;;;;;6.18;2.88;;;-0.40;99.90;;;;;;5072666;28;20089;-86
2022/04/03 04:25:09;;;;;;;8.82;3.45;;;-0.40;99.90;;;;;;5071802;28;20049;-86
2022/04/03 04:27:35;;;;;;;5.60;2.50;;;-0.30;99.90;;;;;;5072535;28;20383;-86
2022/04/03 04:30:01;;;;;;;6.75;2.70;;;-0.30;99.90;;;;;;5073705;28;20040;-85
2022/04/03 04:32:27;;;;;;;7.78;3.00;;;-0.20;99.90;;;;;;5071579;28;20051;-86
2022/04/03 04:34:52;;;;;;;5.35;2.85;;;-0.20;99.90;;;;;;5072725;28;20177;-86
2022/04/03 04:37:18;;;;;;;5.45;2.80;;;-0.10;99.90;;;;;;5072012;28;20037;-85
2022/04/03 04:39:44;;;;;;;3.53;2.50;;;-0.10;99.90;;;;;;5071989;28;20091;-85
2022/04/03 04:42:11;;;;;;;5.35;2.92;;;0.00;99.90;;;;;;5072819;28;20124;-86
2022/04/03 04:44:37;;;;;;;6.57;2.95;;;0.00;99.90;;;;;;5071753;28;20044;-86
2022/04/03 04:47:03;;;;;;;5.55;2.47;;;0.10;99.90;;;;;;5072997;28;20409;-85
2022/04/03 04:49:28;;;;;;;3.95;2.28;;;0.10;99.90;;;;;;5072180;28;20497;-86
2022/04/03 04:51:54;;;;;;;5.70;2.75;;;0.10;99.90;;;;;;5072121;28;20090;-85
2022/04/03 04:54:20;;;;;;;7.82;2.40;;;0.20;99.90;;;;;;5072762;28;20397;-86
2022/04/03 04:56:46;;;;;;;5.70;2.40;;;0.20;99.90;;;;;;5072581;28;20048;-86
2022/04/03 04:59:12;;;;;;;7.82;2.53;;;0.40;99.90;;;;;;5071768;28;20056;-86
2022/04/03 05:01:38;;;;;;;4.60;2.45;;;0.30;99.90;;;;;;5071332;28;20052;-86
2022/04/03 05:04:04;;;;;;;6.15;2.53;;;0.30;99.90;;;;;;5072090;28;20097;-86
2022/04/03 05:06:34;;;;;;;7.55;2.22;;;0.20;99.90;;;;;;5070871;28;20048;-85
2022/04/03 05:09:00;;;;;;;4.70;2.35;;;0.20;99.90;;;;;;5071785;28;20048;-85
2022/04/03 05:11:26;;;;;;;5.43;2.38;;;0.10;99.90;;;;;;5071477;28;20444;-86
2022/04/03 05:13:52;;;;;;;4.40;2.90;;;-0.10;99.90;;;;;;5072686;28;20049;-86
2022/04/03 05:16:18;;;;;;;6.57;2.47;;;-0.20;99.90;;;;;;5072263;28;20047;-86
2022/04/03 05:18:44;;;;;;;6.65;2.70;;;-0.30;99.90;;;;;;5055033;28;20123;-86
2022/04/03 05:21:10;;;;;;;6.15;3.03;;;-0.30;99.90;;;;;;5071025;28;20095;-86
2022/04/03 05:23:37;;;;;;;5.05;2.80;;;-0.40;99.90;;;;;;5072245;28;20055;-86
2022/04/03 05:26:03;;;;;;;6.90;2.65;;;-0.40;99.90;;;;;;5037628;28;20060;-86
2022/04/03 05:28:29;;;;;;;10.43;2.95;;;-0.40;99.90;;;;;;5054127;28;20074;-86
2022/04/03 05:30:55;;;;;;;3.60;2.70;;;-0.50;99.90;;;;;;5054218;28;20513;-86
2022/04/03 05:33:21;;;;;;;4.25;2.45;;;-0.50;99.90;;;;;;5038006;28;20056;-86
2022/04/03 05:35:46;;;;;;;7.60;2.60;;;-0.50;99.90;;;;;;5053925;28;20488;-86
2022/04/03 05:38:12;;;;;;;7.60;2.55;;;-0.50;99.90;;;;;;5071627;28;20138;-86
2022/04/03 05:40:38;;;;;;;7.85;2.85;;;-0.50;99.90;;;;;;5071835;28;20076;-87
2022/04/03 05:43:04;;;;;;;8.40;3.13;;;-0.50;99.90;;;;;;5071971;28;20098;-86
2022/04/03 05:45:30;;;;;;;4.63;2.75;;;-0.50;99.90;;;;;;5072111;28;20442;-86
2022/04/03 05:47:56;;;;;;;6.15;2.88;;;-0.50;99.90;;;;;;5062768;28;20041;-86
2022/04/03 05:50:23;;;;;;;6.80;3.15;;;-0.60;99.90;;;;;;5071237;28;20378;-86
2022/04/03 05:52:51;;;;;;;7.28;3.30;;;-0.60;99.90;;;;;;5071805;28;20044;-86
2022/04/03 05:55:19;;;;;;;5.00;3.10;;;-0.60;99.90;;;;;;5054366;28;20072;-86
2022/04/03 05:57:46;;;;;;;7.70;3.13;;;-0.60;99.90;;;;;;5068581;28;20064;-87
2022/04/03 06:00:13;;;;;;;5.53;3.35;;;-0.60;99.90;;;;;;5061847;28;20040;-86
2022/04/03 06:02:56;;;;;;;7.72;3.00;;;-0.60;99.90;;;;;;5068643;28;20095;-87
2022/04/03 06:05:27;;;;;;;5.65;2.85;;;-0.60;99.90;;;;;;5057644;28;20579;-86
2022/04/03 06:07:52;;;;;;;4.30;2.75;;;-0.50;99.90;;;;;;5061698;28;20040;-86
2022/04/03 06:10:20;;;;;;;4.13;2.60;;;-0.40;99.90;;;;;;5066366;28;20059;-86
2022/04/03 06:13:07;;;;;;;48.35;4.43;;;-0.40;99.90;;;;;;5069214;28;20049;-85
2022/04/03 06:15:35;;;;;;;5.65;2.70;;;-0.20;99.90;;;;;;5070612;28;20058;-86
2022/04/03 06:18:11;;;;;;;4.20;2.45;;;-0.10;99.90;;;;;;5071082;28;20044;-86
2022/04/03 06:20:37;;;;;;;4.10;2.15;;;0.00;99.90;;;;;;5052683;28;20512;-85
2022/04/03 06:23:09;;;;;;;5.97;2.15;;;0.10;99.90;;;;;;5070522;28;20041;-86
2022/04/03 06:25:38;;;;;;;4.60;2.00;;;0.20;99.90;;;;;;5068109;28;20052;-85
2022/04/03 06:28:03;;;;;;;3.20;1.80;;;0.40;99.90;;;;;;5035331;28;20102;-86
2022/04/03 06:30:29;;;;;;;3.00;2.05;;;0.50;99.90;;;;;;5020242;28;20049;-85
2022/04/03 06:32:55;;;;;;;6.28;2.10;;;0.60;99.90;;;;;;5037903;28;20152;-86
2022/04/03 06:35:20;;;;;;;10.57;1.80;;;0.70;99.90;;;;;;5037459;28;20136;-86
2022/04/03 06:37:47;;;;;;;5.75;2.00;;;0.90;99.90;;;;;;5055576;28;20080;-85
2022/04/03 06:40:13;;;;;;;3.05;1.63;;;1.00;99.90;;;;;;5054354;28;20053;-85
2022/04/03 06:42:40;;;;;;;10.75;2.17;;;1.10;99.90;;;;;;5038021;28;20041;-86
2022/04/03 06:45:06;;;;;;;4.50;1.40;;;1.20;99.90;;;;;;5021187;28;20446;-84
2022/04/03 06:47:33;;;;;;;4.78;1.70;;;1.40;99.90;;;;;;5037929;28;20106;-85
2022/04/03 06:49:59;;;;;;;3.10;1.73;;;1.50;99.90;;;;;;5037421;28;20033;-85
2022/04/03 06:52:24;;;;;;;4.18;1.85;;;1.60;99.90;;;;;;5055331;28;20052;-85
2022/04/03 06:54:50;;;;;;;3.97;1.95;;;1.70;99.90;;;;;;5037723;28;20053;-86
2022/04/03 06:57:16;;;;;;;4.00;1.60;;;1.80;99.90;;;;;;5064786;28;20064;-86
2022/04/03 06:59:42;;;;;;;3.65;1.80;;;2.00;99.90;;;;;;5065714;28;20541;-85
2022/04/03 07:02:09;;;;;;;7.80;1.90;;;2.20;99.90;;;;;;5074242;28;20048;-85
2022/04/03 07:04:35;;;;;;;3.58;1.80;;;2.20;99.90;;;;;;5063645;28;20032;-85
2022/04/03 07:07:01;;;;;;;4.43;1.98;;;2.40;99.90;;;;;;5084771;28;20145;-85
2022/04/03 07:09:27;;;;;;;6.07;1.98;;;2.50;99.90;;;;;;5085273;28;20127;-85
2022/04/03 07:11:52;;;;;;;5.50;1.75;;;2.70;99.90;;;;;;5087000;28;20079;-85
2022/04/03 07:14:18;;;;;;;1.70;1.23;;;3.10;99.90;;;;;;5085180;28;21129;-85
2022/04/03 07:16:44;;;;;;;2.63;1.60;;;3.50;99.90;;;;;;5063129;28;20506;-86
2022/04/03 07:19:10;;;;;;;2.47;1.30;;;3.80;99.90;;;;;;5049782;28;20047;-85
2022/04/03 07:21:36;;;;;;;3.78;1.30;;;4.10;99.90;;;;;;5079968;28;20460;-85
2022/04/03 07:24:04;;;;;;;3.83;1.35;;;4.30;99.90;;;;;;5040356;28;20084;-85
2022/04/03 07:26:30;;;;;;;6.75;1.58;;;4.30;99.90;;;;;;5056916;28;20041;-85
2022/04/03 07:28:56;;;;;;;3.92;1.05;;;4.40;99.90;;;;;;5073561;28;20045;-85
2022/04/03 07:31:22;;;;;;;3.58;1.35;;;4.50;99.90;;;;;;5074323;28;20424;-85
2022/04/03 07:33:47;;;;;;;2.88;1.35;;;4.50;99.90;;;;;;5057281;28;20428;-85
2022/04/03 07:36:13;;;;;;;3.95;1.60;;;4.50;99.90;;;;;;5074545;28;20055;-84
2022/04/03 07:38:39;;;;;;;3.15;1.10;;;4.70;99.90;;;;;;5073997;28;20040;-85
2022/04/03 07:41:04;;;;;;;6.55;1.42;;;4.90;99.90;;;;;;5056527;28;20044;-85
2022/04/03 07:43:30;;;;;;;4.38;1.38;;;5.00;99.90;;;;;;5056040;28;20045;-85
2022/04/03 07:45:57;;;;;;;4.20;1.20;;;5.10;99.90;;;;;;5056439;28;20557;-84
2022/04/03 07:48:23;;;;;;;4.97;1.25;;;5.10;99.90;;;;;;5059736;28;20063;-85
2022/04/03 07:50:48;;;;;;;4.00;1.15;;;5.20;99.90;;;;;;5076469;28;20035;-85
2022/04/03 07:53:14;;;;;;;3.20;1.20;;;5.20;99.90;;;;;;5094577;28;20433;-85
2022/04/03 07:55:40;;;;;;;4.57;1.30;;;5.20;99.90;;;;;;5077219;28;20177;-86
2022/04/03 07:58:06;;;;;;;3.28;1.10;;;5.50;99.90;;;;;;5094244;28;20496;-84
2022/04/03 08:00:33;;;;;;;5.85;1.17;;;5.40;99.90;;;;;;5075713;28;20140;-85
2022/04/03 08:02:58;;;;;;;3.88;1.05;;;5.40;99.90;;;;;;5094194;28;20061;-86
2022/04/03 08:05:24;;;;;;;5.72;1.42;;;5.40;99.90;;;;;;5075427;28;20060;-86
2022/04/03 08:07:50;;;;;;;2.33;0.90;;;5.40;99.90;;;;;;5093456;28;20137;-85
2022/04/03 08:10:18;;;;;;;1.92;0.80;;;5.40;99.90;;;;;;5094169;28;20043;-86
2022/04/03 08:12:47;;;;;;;3.47;0.90;;;5.60;99.90;;;;;;5090976;28;20040;-85
2022/04/03 08:15:14;;;;;;;3.90;1.08;;;5.60;99.90;;;;;;5092008;28;20130;-86
2022/04/03 08:17:41;;;;;;;3.85;1.23;;;5.70;99.90;;;;;;5091653;28;20056;-86
2022/04/03 08:20:08;;;;;;;4.88;1.20;;;5.80;99.90;;;;;;5075593;28;20093;-86
2022/04/03 08:22:35;;;;;;;4.18;0.85;;;5.80;99.90;;;;;;5092251;28;20362;-85
2022/04/03 08:25:01;;;;;;;4.57;1.13;;;5.90;99.90;;;;;;5091853;28;20367;-86
2022/04/03 08:28:00;;;;;;;3.25;0.85;;;5.90;99.90;;;;;;5075048;28;20044;-86
2022/04/03 08:30:36;;;;;;;4.35;0.90;;;5.90;99.90;;;;;;4974256;28;20216;-85
2022/04/03 08:33:04;;;;;;;2.15;0.90;;;6.10;99.90;;;;;;4975058;28;20061;-85
2022/04/03 08:35:33;;;;;;;1.73;0.70;;;6.40;99.90;;;;;;4991121;28;20042;-86
2022/04/03 08:38:00;;;;;;;3.55;0.90;;;6.80;99.90;;;;;;4990858;28;20053;-86
2022/04/03 08:40:26;;;;;;;3.22;0.93;;;7.10;99.90;;;;;;4990753;28;20154;-87
2022/04/03 08:42:54;;;;;;;3.40;0.77;;;7.50;99.90;;;;;;4996392;28;20152;-86
2022/04/03 08:45:21;;;;;;;5.65;0.75;;;7.60;99.90;;;;;;4994026;28;20121;-85
2022/04/03 08:47:51;;;;;;;1.40;0.60;;;7.60;99.90;;;;;;5010517;28;20089;-86
2022/04/03 08:50:18;;;;;;;2.17;1.10;;;7.60;99.90;;;;;;5009872;28;20101;-85
2022/04/03 08:52:52;;;;;;;6.15;0.70;;;7.90;99.90;;;;;;4994461;28;20500;-85
2022/04/03 08:55:19;;;;;;;2.38;0.73;;;8.50;99.90;;;;;;4980296;28;20053;-85
2022/04/03 08:57:45;;;;;;;2.38;0.60;;;9.40;99.90;;;;;;4997719;28;20124;-86
2022/04/03 09:00:15;;;;;;;3.80;0.82;;;10.50;99.90;;;;;;4994107;28;20137;-85
2022/04/03 09:02:42;;;;;;;4.82;0.90;;;10.40;99.90;;;;;;5010727;28;20104;-85
2022/04/03 09:05:11;;;;;;;2.85;0.60;;;10.90;99.90;;;;;;5019803;28;20106;-85
2022/04/03 09:07:37;;;;;;;4.07;0.70;;;10.80;99.90;;;;;;5054890;28;20080;-85
2022/04/03 09:10:12;;;;;;;5.85;1.50;;;10.30;99.90;;;;;;5054818;28;20145;-85
2022/04/03 09:12:48;;;;;;;4.05;0.77;;;9.80;99.90;;;;;;5072758;28;20059;-84
2022/04/03 09:15:18;;;;;;;2.63;0.60;;;9.40;99.90;;;;;;5054955;28;20132;-85
2022/04/03 09:17:45;;;;;;;5.38;0.90;;;8.90;99.90;;;;;;5054817;28;20154;-86
2022/04/03 09:20:17;;;;;;;3.78;0.88;;;8.70;99.90;;;;;;5074132;28;20381;-85
2022/04/03 09:22:45;;;;;;;1.90;0.63;;;8.50;99.90;;;;;;5073471;28;20564;-87
2022/04/03 09:25:15;;;;;;;4.55;0.60;;;9.70;99.90;;;;;;5092002;28;20435;-85
2022/04/03 09:27:52;;;;;;;5.25;0.77;;;10.90;99.90;;;;;;5056934;28;20098;-86
2022/04/03 09:30:28;;;;;;;0.82;0.40;;;11.60;91.70;;;;;;5057189;28;20051;-85
2022/04/03 09:32:56;;;;;;;1.30;0.40;;;11.60;89.00;;;;;;5073380;28;20105;-86
2022/04/03 09:35:27;;;;;;;2.75;0.80;;;10.90;91.00;;;;;;5057072;28;20116;-86
2022/04/03 09:38:04;;;;;;;;;;;10.30;93.30;;;;;;5074638;28;20445;-86
2022/04/03 09:40:32;;;;;;;3.58;0.70;;;9.70;87.70;;;;;;5074074;28;19916;-86
2022/04/03 09:43:27;;;;;;;2.45;0.70;;;9.30;99.90;;;;;;5056681;28;20044;-86
2022/04/03 09:45:54;;;;;;;2.67;0.50;;;9.10;99.80;;;;;;5057459;28;20412;-85
2022/04/03 09:48:26;;;;;;;1.67;0.68;;;8.90;99.90;;;;;;5073706;28;20641;-86
2022/04/03 09:51:26;;;;;;;3.60;0.80;;;9.00;99.90;;;;;;5091921;28;20075;-86
2022/04/03 09:54:00;;;;;;;3.27;0.70;;;9.00;99.90;;;;;;5074374;28;20435;-86
2022/04/03 09:56:31;;;;;;;1.63;0.50;;;8.80;99.90;;;;;;5074640;28;20285;-85
2022/04/03 09:58:57;;;;;;;1.48;0.57;;;9.30;99.90;;;;;;5074381;28;20465;-86
2022/04/03 10:01:27;;;;;;;1.17;0.50;;;10.80;97.50;;;;;;5092338;28;20504;-86
2022/04/03 10:03:54;;;;;;;2.83;0.43;;;12.50;87.40;;;;;;5078082;28;20564;-87
2022/04/03 10:06:21;;;;;;;1.67;0.50;;;14.20;74.10;;;;;;5078219;28;20071;-87
2022/04/03 10:08:48;;;;;;;2.35;0.70;;;14.70;65.60;;;;;;5061714;28;20055;-87
2022/04/03 10:11:16;;;;;;;2.22;0.50;;;15.00;64.50;;;;;;5096031;28;20123;-87
2022/04/03 10:13:43;;;;;;;2.15;0.50;;;14.80;62.00;;;;;;5096209;28;20051;-86
2022/04/03 10:16:13;;;;;;;2.72;0.60;;;14.00;63.00;;;;;;5093639;28;20091;-87
2022/04/03 10:18:43;;;;;;;3.40;0.97;;;13.20;66.00;;;;;;5060546;28;20051;-86
2022/04/03 10:21:23;;;;;;;3.70;1.15;;;12.70;72.90;;;;;;5095233;28;20296;-86
2022/04/03 10:23:52;;;;;;;2.00;0.75;;;13.60;69.80;;;;;;5061081;28;20044;-86
2022/04/03 10:26:19;;;;;;;1.73;0.57;;;15.10;63.40;;;;;;5077246;28;20044;-87
2022/04/03 10:28:53;;;;;;;2.33;0.50;;;16.30;58.00;;;;;;5095460;28;20036;-86
2022/04/03 10:31:19;;;;;;;2.40;0.43;;;17.20;53.20;;;;;;5076062;28;20485;-87
2022/04/03 10:33:49;;;;;;;2.88;0.35;;;17.20;52.40;;;;;;5060680;28;20060;-86
2022/04/03 10:36:22;;;;;;;1.25;0.60;;;16.00;50.30;;;;;;5077114;28;20052;-86
2022/04/03 10:39:03;;;;;;;2.13;0.43;;;15.70;52.90;;;;;;5087454;28;20058;-86
2022/04/03 10:41:28;;;;;;;2.25;0.60;;;15.90;50.20;;;;;;5076946;28;20058;-87
2022/04/03 10:44:15;;;;;;;1.40;0.40;;;15.00;50.90;;;;;;5076889;28;20467;-86
2022/04/03 10:47:02;;;;;;;0.82;0.30;;;13.80;51.60;;;;;;5076809;28;20052;-86
2022/04/03 10:49:34;;;;;;;1.17;0.30;;;12.70;54.70;;;;;;5076927;28;20636;-86
2022/04/03 10:52:33;;;;;;;3.10;0.43;;;11.80;57.20;;;;;;5059964;28;20127;-86
2022/04/03 10:55:02;;;;;;;2.92;0.50;;;11.10;59.30;;;;;;5004447;28;20093;-86
2022/04/03 10:57:42;;;;;;;1.48;0.30;;;10.50;63.70;;;;;;5013093;28;20088;-86
2022/04/03 11:00:14;;;;;;;2.08;0.30;;;10.20;65.10;;;;;;5013267;28;20137;-86
2022/04/03 11:02:44;;;;;;;0.90;0.32;;;9.90;65.40;;;;;;5011186;28;20072;-86
2022/04/03 11:05:22;;;;;;;1.05;0.30;;;9.60;64.80;;;;;;4995791;28;20085;-86
2022/04/03 11:07:54;;;;;;;1.40;0.47;;;9.40;64.70;;;;;;4980053;28;20061;-85
2022/04/03 11:10:45;;;;;;;2.13;0.40;;;9.10;67.60;;;;;;5012641;28;20049;-86
2022/04/03 11:13:13;;;;;;;0.98;0.50;;;9.10;69.90;;;;;;4995418;28;20450;-86
2022/04/03 11:15:54;;;;;;;2.00;0.40;;;8.90;70.70;;;;;;5012342;28;20041;-86
2022/04/03 11:18:27;;;;;;;3.58;0.50;;;8.90;73.70;;;;;;4979996;28;20054;-86
2022/04/03 11:21:16;;;;;;;1.83;0.55;;;8.80;76.70;;;;;;5012558;28;20487;-85
2022/04/03 11:24:04;;;;;;;5.78;0.52;;;8.90;81.60;;;;;;4980510;28;20045;-85
2022/04/03 11:26:30;;;;;;;2.38;0.43;;;8.90;82.20;;;;;;4996187;28;20050;-85
2022/04/03 11:28:56;;;;;;;2.08;0.40;;;9.10;81.40;;;;;;4995854;28;20054;-86
2022/04/03 11:31:22;;;;;;;1.52;0.38;;;9.20;82.30;;;;;;5041329;28;20048;-85
2022/04/03 11:33:48;;;;;;;1.73;0.57;;;9.70;79.60;;;;;;5076554;28;20048;-86
2022/04/03 11:36:17;;;;;;;1.80;0.47;;;10.60;77.90;;;;;;5094457;28;20036;-86
2022/04/03 11:38:44;;;;;;;2.90;0.68;;;12.30;68.40;;;;;;5072131;28;20056;-84
2022/04/03 11:41:22;;;;;;;4.65;1.00;;;12.70;62.80;;;;;;5039539;28;20051;-86
2022/04/03 11:44:02;;;;;;;1.80;0.68;;;12.50;60.90;;;;;;5074354;28;20045;-85
2022/04/03 11:46:48;;;;;;;1.42;0.60;;;12.10;60.40;;;;;;5074251;28;20141;-86
2022/04/03 11:49:18;;;;;;;8.15;2.72;;;11.40;62.60;;;;;;5056579;28;20040;-85
2022/04/03 11:51:45;;;;;;;3.00;0.60;;;10.80;65.60;;;;;;5074307;28;20406;-86
2022/04/03 11:54:14;;;;;;;1.33;0.40;;;10.30;71.30;;;;;;5074358;28;20052;-85
2022/04/03 11:56:40;;;;;;;5.95;0.70;;;9.80;77.10;;;;;;5074155;28;20060;-86
2022/04/03 11:59:08;;;;;;;1.60;0.60;;;9.30;85.60;;;;;;5039198;28;20186;-86
2022/04/03 12:01:42;;;;;;;1.42;0.55;;;9.10;91.70;;;;;;5055777;28;20418;-85
2022/04/03 12:04:09;;;;;;;1.85;0.40;;;8.80;92.90;;;;;;5073711;28;20052;-86
2022/04/03 12:06:36;;;;;;;1.77;0.77;;;8.80;93.80;;;;;;5073430;28;20052;-86
2022/04/03 12:09:09;;;;;;;5.55;2.75;;;8.80;92.60;;;;;;5045742;28;20509;-86
2022/04/03 12:11:37;;;;;;;2.35;1.30;;;9.00;90.90;;;;;;5076331;28;20126;-85
2022/04/03 12:14:04;;;;;;;2.10;1.05;;;9.40;87.50;;;;;;5089867;28;20494;-85
2022/04/03 12:16:32;;;;;;;2.83;0.85;;;9.60;82.00;;;;;;5073600;28;20394;-86
2022/04/03 12:18:58;;;;;;;2.97;1.30;;;9.60;79.70;;;;;;5056597;28;20124;-86
2022/04/03 12:21:56;;;;;;;2.38;1.13;;;9.80;77.00;;;;;;5079733;28;20102;-86
2022/04/03 12:24:27;;;;;;;1.77;0.63;;;9.50;75.80;;;;;;5055968;28;20398;-85
2022/04/03 12:27:14;;;;;;;1.75;0.60;;;9.10;80.90;;;;;;5073372;28;20486;-86
2022/04/03 12:29:43;;;;;;;0.95;0.50;;;8.70;91.50;;;;;;5055571;28;20105;-86
2022/04/03 12:32:15;;;;;;;3.28;0.52;;;8.20;94.90;;;;;;5054970;28;20056;-85
2022/04/03 12:34:43;;;;;;;6.97;0.40;;;7.90;99.10;;;;;;5055771;28;20092;-85
2022/04/03 12:37:10;;;;;;;3.05;0.70;;;7.70;99.90;;;;;;5073162;28;20127;-86
2022/04/03 12:39:45;;;;;;;2.05;0.60;;;7.70;99.90;;;;;;5039232;28;20047;-86
2022/04/03 12:42:17;;;;;;;3.03;0.50;;;7.80;99.90;;;;;;5041939;28;20044;-85
2022/04/03 12:44:55;;;;;;;3.05;0.70;;;8.10;99.90;;;;;;5092792;28;20048;-86
2022/04/03 12:47:42;;;;;;;2.25;0.45;;;8.40;99.90;;;;;;5067608;28;20051;-85
2022/04/03 12:50:43;;;;;;;2.63;0.75;;;8.80;99.90;;;;;;5085450;28;20117;-86
2022/04/03 12:53:16;;;;;;;1.70;0.70;;;9.30;99.90;;;;;;4978192;28;20456;-85
2022/04/03 12:55:48;;;;;;;1.58;0.60;;;9.70;99.90;;;;;;5010798;28;20188;-85
2022/04/03 12:58:40;;;;;;;3.20;0.70;;;9.90;98.70;;;;;;4978216;28;20108;-86